createdAt,value
2019-04-25T00:01:12.773Z,0.75
2019-04-25T00:03:15.233Z,0.53
2019-04-25T00:05:17.111Z,0.80
2019-04-25T00:07:18.377Z,0.70
2019-04-25T00:09:21.887Z,0.78
2019-04-25T00:11:24.426Z,0.70
2019-04-25T00:13:27.590Z,0.68
2019-04-25T00:15:29.385Z,0.50
2019-04-25T00:17:31.526Z,0.60
2019-04-25T00:19:34.137Z,0.60
2019-04-25T00:21:39.239Z,0.50
2019-04-25T00:23:42.610Z,0.80
2019-04-25T00:25:47.803Z,0.57
2019-04-25T00:27:49.501Z,0.70
2019-04-25T00:29:51.672Z,0.70
2019-04-25T00:31:54.106Z,0.60
2019-04-25T00:33:55.434Z,0.57
2019-04-25T00:35:56.873Z,0.50
2019-04-25T00:37:58.189Z,0.90
2019-04-25T00:40:01.477Z,0.57
2019-04-25T00:42:03.041Z,0.60
2019-04-25T00:44:04.406Z,0.60
2019-04-25T00:46:05.682Z,0.60
2019-04-25T00:48:06.937Z,0.93
2019-04-25T00:50:08.546Z,0.60
2019-04-25T00:52:11.618Z,0.50
2019-04-25T00:54:13.068Z,0.60
2019-04-25T00:56:14.334Z,0.65
2019-04-25T00:58:21.492Z,0.85
2019-04-25T01:00:33.773Z,0.60
2019-04-25T01:02:36.949Z,0.85
2019-04-25T01:04:38.327Z,0.50
2019-04-25T01:06:41.578Z,0.45
2019-04-25T01:08:43.362Z,0.57
2019-04-25T01:10:45.826Z,0.50
2019-04-25T01:12:48.175Z,0.65
2019-04-25T01:14:50.445Z,0.70
2019-04-25T01:16:53.897Z,0.57
2019-04-25T01:18:55.825Z,0.78
2019-04-25T01:20:57.366Z,0.57
2019-04-25T01:23:00.901Z,0.80
2019-04-25T01:25:08.080Z,0.90
2019-04-25T01:27:09.746Z,0.82
2019-04-25T01:31:14.969Z,0.62
2019-04-25T01:33:16.429Z,1.10
2019-04-25T01:35:19.937Z,0.70
2019-04-25T01:37:33.793Z,0.60
2019-04-25T01:39:37.125Z,0.70
2019-04-25T01:41:44.144Z,0.70
2019-04-25T01:43:48.757Z,0.70
2019-04-25T01:45:51.713Z,0.93
2019-04-25T01:47:54.346Z,0.70
2019-04-25T01:49:56.696Z,0.93
2019-04-25T01:51:58.613Z,0.55
2019-04-25T01:54:00.972Z,0.70
2019-04-25T01:56:05.884Z,0.60
2019-04-25T01:58:05.662Z,0.80
2019-04-25T02:00:09.429Z,0.42
2019-04-25T02:02:14.050Z,0.53
2019-04-25T02:04:15.574Z,0.70
2019-04-25T02:06:16.841Z,0.82
2019-04-25T02:08:18.206Z,0.68
2019-04-25T02:10:19.933Z,0.70
2019-04-25T02:14:24.979Z,0.40
2019-04-25T02:16:26.316Z,0.70
2019-04-25T02:18:27.573Z,0.50
2019-04-25T02:20:29.295Z,0.60
2019-04-25T02:22:30.563Z,0.80
2019-04-25T02:24:33.711Z,0.50
2019-04-25T02:26:35.180Z,0.68
2019-04-25T02:28:36.451Z,0.62
2019-04-25T02:30:38.077Z,0.78
2019-04-25T02:32:39.443Z,0.70
2019-04-25T02:34:40.713Z,0.88
2019-04-25T02:36:46.434Z,1.05
2019-04-25T02:38:45.282Z,0.98
2019-04-25T02:40:46.560Z,0.78
2019-04-25T02:42:47.927Z,0.90
2019-04-25T02:44:51.093Z,0.70
2019-04-25T02:46:59.090Z,1.10
2019-04-25T02:49:06.551Z,0.82
2019-04-25T02:51:07.646Z,0.80
2019-04-25T02:53:28.802Z,0.95
2019-04-25T02:55:34.103Z,0.70
2019-04-25T02:57:34.562Z,1.17
2019-04-25T02:59:37.052Z,0.68
2019-04-25T03:01:39.721Z,0.70
2019-04-25T03:03:40.998Z,0.60
2019-04-25T03:05:42.292Z,0.60
2019-04-25T03:07:44.538Z,0.90
2019-04-25T03:09:46.710Z,0.60
2019-04-25T03:11:47.976Z,0.62
2019-04-25T03:13:49.348Z,0.90
2019-04-25T03:15:53.514Z,0.60
2019-04-25T03:17:54.838Z,0.78
2019-04-25T03:19:59.338Z,0.70
2019-04-25T03:22:06.783Z,1.10
2019-04-25T03:24:11.388Z,1.10
2019-04-25T03:26:09.865Z,1.30
2019-04-25T03:28:11.133Z,1.07
2019-04-25T03:30:14.908Z,1.15
2019-04-25T03:32:19.688Z,1.05
2019-04-25T03:34:20.762Z,0.85
2019-04-25T03:36:23.861Z,0.85
2019-04-25T03:38:25.412Z,0.80
2019-04-25T03:40:26.681Z,0.98
2019-04-25T03:42:27.953Z,0.80
2019-04-25T03:44:29.244Z,0.95
2019-04-25T03:46:30.713Z,0.80
2019-04-25T03:48:32.048Z,1.00
2019-04-25T03:50:34.108Z,0.93
2019-04-25T03:52:35.503Z,0.50
2019-04-25T03:54:36.864Z,0.68
2019-04-25T03:56:49.655Z,0.90
2019-04-25T03:58:41.768Z,0.70
2019-04-25T04:00:44.734Z,1.00
2019-04-25T04:02:46.262Z,1.10
2019-04-25T04:04:47.544Z,0.65
2019-04-25T04:06:50.445Z,1.10
2019-04-25T04:08:53.799Z,1.20
2019-04-25T04:10:55.736Z,1.32
2019-04-25T04:12:57.042Z,2.05
2019-04-25T04:14:58.732Z,1.90
2019-04-25T04:19:16.917Z,1.10
2019-04-25T04:21:20.210Z,1.00
2019-04-25T04:23:23.464Z,1.27
2019-04-25T04:25:25.002Z,0.95
2019-04-25T04:27:26.757Z,1.10
2019-04-25T04:29:28.035Z,1.00
2019-04-25T04:31:29.653Z,1.45
2019-04-25T04:33:34.022Z,1.65
2019-04-25T04:35:34.186Z,1.20
2019-04-25T04:37:36.453Z,0.88
2019-04-25T04:39:37.717Z,1.25
2019-04-25T04:41:38.978Z,1.02
2019-04-25T04:43:40.255Z,1.22
2019-04-25T04:45:43.277Z,1.42
2019-04-25T04:47:46.682Z,1.85
2019-04-25T04:49:47.950Z,2.85
2019-04-25T04:51:49.268Z,2.90
2019-04-25T04:53:50.574Z,2.75
2019-04-25T04:55:51.861Z,1.70
2019-04-25T04:57:54.252Z,1.55
2019-04-25T04:59:55.661Z,1.25
2019-04-25T05:02:11.596Z,1.35
2019-04-25T05:04:16.271Z,0.90
2019-04-25T05:06:21.438Z,1.07
2019-04-25T05:08:33.897Z,1.02
2019-04-25T05:10:35.286Z,0.98
2019-04-25T05:12:36.717Z,1.15
2019-04-25T05:14:38.023Z,1.00
2019-04-25T05:16:39.277Z,0.85
2019-04-25T05:18:40.551Z,1.10
2019-04-25T05:20:42.061Z,0.93
2019-04-25T05:22:44.542Z,1.45
2019-04-25T05:24:46.091Z,1.50
2019-04-25T05:26:47.424Z,1.20
2019-04-25T05:28:48.707Z,1.02
2019-04-25T05:30:57.850Z,1.10
2019-04-25T05:32:59.130Z,0.95
2019-04-25T05:35:00.418Z,0.90
2019-04-25T05:37:01.690Z,1.02
2019-04-25T05:39:06.679Z,0.72
2019-04-25T05:41:14.776Z,0.80
2019-04-25T05:43:16.347Z,0.70
2019-04-25T05:45:21.170Z,1.10
2019-04-25T05:47:25.661Z,1.10
2019-04-25T05:49:26.367Z,0.90
2019-04-25T05:51:27.794Z,1.02
2019-04-25T05:53:29.231Z,1.07
2019-04-25T05:55:30.751Z,1.02
2019-04-25T05:57:45.155Z,0.93
2019-04-25T05:59:35.193Z,1.40
2019-04-25T06:01:36.485Z,1.20
2019-04-25T06:03:37.800Z,0.93
2019-04-25T06:05:39.074Z,1.17
2019-04-25T06:07:40.342Z,1.00
2019-04-25T06:09:44.443Z,0.93
2019-04-25T06:14:03.379Z,1.12
2019-04-25T06:16:07.073Z,0.90
2019-04-25T06:18:16.536Z,1.00
2019-04-25T06:20:28.637Z,1.00
2019-04-25T06:22:48.246Z,0.80
2019-04-25T06:24:54.308Z,1.05
2019-04-25T06:26:57.857Z,0.80
2019-04-25T06:28:59.905Z,0.85
2019-04-25T06:31:01.304Z,1.02
2019-04-25T06:33:03.307Z,1.12
2019-04-25T06:35:05.189Z,0.90
2019-04-25T06:39:08.279Z,1.15
2019-04-25T06:41:09.621Z,0.90
2019-04-25T06:43:10.885Z,0.90
2019-04-25T06:45:34.440Z,1.10
2019-04-25T06:47:40.789Z,1.05
2019-04-25T06:49:43.216Z,1.07
2019-04-25T06:51:48.298Z,0.95
2019-04-25T06:53:49.595Z,0.78
2019-04-25T06:55:50.909Z,1.12
2019-04-25T06:57:53.947Z,0.90
2019-04-25T06:59:55.422Z,0.72
2019-04-25T07:01:56.741Z,0.80
2019-04-25T07:03:58.007Z,0.80
2019-04-25T07:05:59.446Z,1.00
2019-04-25T07:08:00.789Z,0.75
2019-04-25T07:10:05.251Z,0.70
2019-04-25T07:12:06.753Z,0.70
2019-04-25T07:14:08.226Z,0.82
2019-04-25T07:16:09.565Z,0.70
2019-04-25T07:18:11.010Z,0.88
2019-04-25T07:20:13.838Z,0.90
2019-04-25T07:22:15.464Z,1.17
2019-04-25T07:24:17.611Z,0.62
2019-04-25T07:26:20.848Z,0.85
2019-04-25T07:28:35.683Z,1.00
2019-04-25T07:30:50.107Z,1.07
2019-04-25T08:52:24.286Z,1.20
2019-04-25T09:33:46.760Z,0.85
2019-04-25T09:35:48.152Z,0.80
2019-04-25T09:37:49.442Z,0.80
2019-04-25T09:39:53.762Z,0.60
2019-04-25T09:41:56.831Z,0.60
2019-04-25T09:44:00.012Z,0.60
2019-04-25T09:46:14.756Z,0.50
2019-04-25T09:48:23.649Z,0.90
2019-04-25T09:50:29.541Z,0.50
2019-04-25T09:52:30.809Z,0.53
2019-04-25T09:54:33.977Z,0.70
2019-04-25T09:56:40.505Z,0.40
2019-04-25T09:58:45.950Z,0.62
2019-04-25T10:00:49.158Z,0.47
2019-04-25T10:02:50.424Z,0.60
2019-04-25T10:04:51.823Z,0.55
2019-04-25T10:06:53.586Z,0.60
2019-04-25T10:08:54.965Z,0.45
2019-04-25T10:10:56.222Z,0.72
2019-04-25T10:12:57.808Z,0.60
2019-04-25T10:15:12.196Z,0.60
2019-04-25T10:17:13.784Z,0.70
2019-04-25T10:19:15.477Z,0.85
2019-04-25T10:21:17.143Z,0.40
2019-04-25T10:25:19.797Z,0.60
2019-04-25T10:27:21.215Z,0.80
2019-04-25T10:31:23.871Z,0.70
2019-04-25T10:33:25.309Z,0.60
2019-04-25T10:35:26.686Z,0.70
2019-04-25T10:37:27.962Z,0.45
2019-04-25T10:39:29.557Z,0.60
2019-04-25T10:41:30.926Z,0.88
2019-04-25T10:43:34.242Z,0.80
2019-04-25T10:45:35.802Z,0.40
2019-04-25T10:47:37.493Z,1.17
2019-04-25T10:49:39.833Z,0.60
2019-04-25T10:51:42.778Z,0.80
2019-04-25T10:53:46.008Z,0.50
2019-04-25T10:55:48.287Z,0.50
2019-04-25T11:00:00.414Z,0.60
2019-04-25T11:01:55.126Z,0.53
2019-04-25T11:04:04.753Z,0.70
2019-04-25T11:10:09.366Z,0.40
2019-04-25T11:14:13.492Z,0.50
2019-04-25T11:47:00.697Z,0.85
2019-04-25T18:17:25.903Z,1.07
2019-04-25T18:21:30.624Z,0.80
2019-04-25T18:23:50.199Z,0.90
2019-04-25T18:26:02.314Z,1.00
2019-04-25T18:28:05.494Z,0.98
2019-04-25T18:30:07.394Z,0.90
2019-04-25T18:32:08.889Z,0.68
2019-04-25T18:36:31.539Z,0.82
2019-04-25T18:38:37.561Z,0.60
2019-04-25T18:40:40.765Z,0.78
2019-04-25T18:42:44.202Z,1.00
2019-04-25T18:44:46.228Z,0.55
2019-04-25T18:46:47.924Z,1.00
2019-04-25T18:48:49.223Z,0.90
2019-04-25T18:50:50.665Z,1.00
2019-04-25T18:52:56.654Z,1.50
2019-04-25T18:55:02.653Z,1.15
2019-04-25T18:57:08.713Z,1.30
2019-04-25T19:48:41.326Z,0.90
2019-04-25T19:58:51.146Z,1.00
2019-04-25T20:00:52.878Z,0.70
2019-04-25T20:03:11.222Z,0.90
2019-04-25T20:05:14.674Z,0.90
2019-04-25T20:07:17.858Z,0.90
2019-04-25T20:09:33.201Z,0.88
2019-04-25T20:11:36.462Z,0.95
2019-04-25T20:13:37.733Z,0.93
2019-04-25T20:15:39.058Z,1.00
2019-04-25T20:17:40.342Z,0.72
2019-04-25T20:19:41.621Z,1.25
2019-04-25T20:21:43.621Z,1.02
2019-04-25T20:23:46.483Z,1.12
2019-04-25T20:25:48.280Z,1.05
2019-04-25T20:27:50.568Z,1.40
2019-04-25T20:29:52.706Z,1.00
2019-04-25T20:34:05.377Z,1.10
2019-04-25T20:35:59.558Z,1.17
2019-04-25T20:38:00.833Z,1.10
2019-04-25T20:40:02.622Z,1.10
2019-04-25T20:42:04.290Z,0.98
2019-04-25T20:44:05.575Z,1.05
2019-04-25T20:46:06.897Z,1.00
2019-04-25T20:48:08.242Z,0.95
2019-04-25T20:50:09.995Z,1.20
2019-04-25T20:52:11.659Z,1.10
2019-04-25T20:56:14.441Z,1.05
2019-04-25T20:58:15.717Z,1.32
2019-04-25T21:00:39.978Z,1.17
2019-04-25T21:02:40.782Z,1.10
2019-04-25T21:04:42.156Z,1.12
2019-04-25T21:06:43.422Z,1.50
2019-04-25T21:08:44.803Z,1.07
2019-04-25T21:10:46.078Z,1.00
2019-04-25T21:12:47.364Z,1.10
2019-04-25T21:14:53.133Z,1.55
2019-04-25T21:17:12.618Z,1.10
2019-04-25T21:19:15.898Z,1.10
2019-04-25T21:21:17.273Z,1.10
2019-04-25T21:23:18.622Z,1.10
2019-04-25T21:25:20.109Z,1.30
2019-04-25T21:27:21.731Z,1.12
2019-04-25T21:31:24.356Z,1.17
2019-04-25T21:33:25.802Z,1.20
2019-04-25T21:37:28.633Z,0.97
2019-04-25T21:41:38.921Z,0.78
2019-04-25T21:43:42.823Z,1.25
2019-04-25T21:45:44.421Z,0.80
2019-04-25T21:47:45.898Z,1.10
2019-04-25T21:51:48.843Z,0.70
2019-04-25T21:53:50.214Z,1.30
2019-04-25T21:57:55.158Z,0.90
2019-04-25T22:00:03.053Z,1.10
2019-04-25T22:02:00.715Z,0.85
2019-04-25T22:04:02.935Z,1.02
2019-04-25T22:06:05.143Z,1.00
2019-04-25T22:08:06.511Z,0.90
2019-04-25T22:10:07.958Z,0.90
2019-04-25T22:12:11.733Z,1.30
2019-04-25T22:14:13.021Z,1.15
2019-04-25T22:18:16.243Z,1.00
2019-04-25T22:20:17.534Z,1.47
2019-04-25T22:22:18.801Z,1.25
2019-04-25T22:24:20.470Z,1.17
2019-04-25T22:26:22.414Z,1.12
2019-04-25T22:28:23.989Z,1.00
2019-04-25T22:32:29.329Z,1.07
2019-04-25T22:34:51.302Z,1.00
2019-04-25T22:36:41.513Z,1.00
2019-04-25T22:38:42.895Z,0.95
2019-04-25T22:40:44.182Z,1.30
2019-04-25T22:44:47.064Z,0.77
2019-04-25T22:46:48.341Z,0.90
2019-04-25T22:48:49.623Z,0.98
2019-04-25T22:50:50.921Z,0.80
2019-04-25T22:52:52.321Z,1.07
2019-04-25T22:54:53.681Z,1.25
2019-04-25T22:58:56.824Z,1.10
2019-04-25T23:03:02.430Z,1.00
2019-04-25T23:05:16.095Z,0.93
2019-04-25T23:07:16.799Z,1.30
2019-04-25T23:09:18.457Z,1.10
2019-04-25T23:11:20.177Z,0.95
2019-04-25T23:15:22.991Z,1.10
2019-04-25T23:17:24.697Z,1.10
2019-04-25T23:21:28.023Z,1.20
2019-04-25T23:23:32.238Z,1.07
2019-04-25T23:25:34.544Z,1.52
2019-04-25T23:27:38.138Z,0.93
2019-04-25T23:29:39.733Z,0.90
2019-04-25T23:31:41.781Z,0.82
2019-04-25T23:33:43.460Z,1.17
2019-04-25T23:35:47.069Z,1.12
2019-04-25T23:37:48.793Z,0.80
2019-04-25T23:39:50.147Z,1.00
2019-04-25T23:41:51.549Z,0.80
2019-04-25T23:43:52.835Z,1.00
2019-04-25T23:45:54.423Z,0.72
2019-04-25T23:47:56.002Z,1.00
2019-04-25T23:51:58.864Z,0.80
2019-04-25T23:54:00.276Z,1.00
2019-04-25T23:56:01.563Z,0.95
2019-04-25T23:58:03.259Z,0.90
